Terminal Aerodrome Forecast
Issued by NWS Duluth, MN

Home | Current Version | Previous Version | Text Only | Print | Product List | Glossary On
Versions: 1 2 3 4 5 6 7 8 9 10 11 12 13 14 15 16 17 18 19 20
000
FTUS43 KDLH 201140
TAFINL
TAF
KINL 201140Z 2012/2112 22003KT P6SM FEW250
      TEMPO 2012/2013 BKN019
     FM201400 30012KT P6SM SCT200
     FM210200 VRB03KT P6SM SKC=

USA.gov is the U.S. government's official web portal to all federal, state and local government web resources and services.